Terminal Aerodrome Forecast
Issued by NWS Jackson, MS

Home | Current Version | Previous Version | Text Only | Print | Product List | Glossary On
Versions: 1 2 3 4 5 6 7 8 9 10 11 12 13 14 15 16 17
000
FTUS44 KJAN 280500
TAFMEI
TAF
KMEI 280520Z 2806/2906 17005KT 5SM TSRA BR SCT006 BKN025CB OVC035
     FM280800 17008KT 5SM -RA BR VCTS OVC006CB
     FM281200 33008KT 4SM -RA BR OVC003
     FM281700 32008KT 6SM -RA BR OVC007=

USA.gov is the U.S. government's official web portal to all federal, state and local government web resources and services.